Data for 11/11/2006

Time Sea-Level Adjusted Pressure Absolute Pressure Temperature Relative Humidity Dew Point   
(mb) (inHg) (mb) (inHg) (C) (F) (%) (C) (F)
00:05 1012 29.88 841 24.83 5.1 41.2 33 -10.1 13.9
00:10 1012 29.88 841 24.83 5.2 41.4 35 -9.2 15.4
00:15 1012 29.88 841 24.83 5.1 41.2 34 -9.7 14.6
00:20 1012 29.88 841 24.83 5.4 41.8 29 -11 12.1
00:25 1012 29.88 841 24.83 5.8 42.5 30 -10.6 13
00:30 1012 29.88 841 24.83 6.4 43.5 26 -11.9 10.6
00:35 1012 29.88 841 24.83 6.7 44 26 -11.3 11.6
00:40 1012 29.88 841 24.83 6.5 43.7 27 -11 12.1
00:45 1012 29.88 841 24.83 6.5 43.8 26 -11.6 11.1
00:50 1012 29.88 841 24.83 6.6 43.9 28 -10.5 13.1
00:55 1012 29.88 841 24.83 6.4 43.5 28 -10.8 12.6
01:00 1011 29.85 841 24.83 6.1 43 29 -10.6 12.9
01:05 1011 29.85 840 24.81 6.1 42.9 28 -10.9 12.3
01:10 1011 29.85 840 24.81 6.4 43.5 28 -11 12.2
01:15 1011 29.85 840 24.81 6.3 43.4 29 -10.3 13.4
01:20 1011 29.85 840 24.81 6.3 43.3 29 -10.5 13
01:25 1011 29.85 840 24.81 5.9 42.7 29 -10.8 12.5
01:30 1011 29.85 840 24.81 6 42.7 28 -11.1 12.1
01:35 1011 29.85 840 24.81 5.9 42.6 28 -11.1 11.9
01:40 1011 29.85 840 24.81 6 42.8 28 -11 12.1
01:45 1011 29.85 840 24.81 6.3 43.4 29 -10.5 13
01:50 1010 29.83 840 24.81 6.2 43.1 30 -9.9 14.1
01:55 1010 29.83 839 24.78 5.9 42.6 31 -10.2 13.7
02:00 1010 29.83 839 24.78 5.8 42.4 33 -9.4 15.1
02:05 1010 29.83 839 24.78 5.8 42.4 33 -9.5 15
02:10 1010 29.83 840 24.81 5.7 42.2 33 -9.4 15
02:15 1010 29.83 839 24.78 5.5 41.9 33 -9.6 14.7
02:20 1010 29.83 839 24.78 5.3 41.5 33 -9.6 14.7
02:25 1010 29.83 839 24.78 5.3 41.6 33 -9.7 14.6
02:30 1010 29.83 839 24.78 5.3 41.6 33 -9.8 14.4
02:35 1010 29.83 839 24.78 5.2 41.4 33 -9.8 14.3
02:40 1010 29.83 839 24.78 5.2 41.4 33 -9.8 14.3
02:45 1010 29.83 839 24.78 5.3 41.5 33 -9.7 14.5
02:50 1010 29.83 839 24.78 5.4 41.6 32 -10 14.1
02:55 1010 29.83 839 24.78 5.4 41.7 33 -9.6 14.7
03:00 1010 29.83 839 24.78 5.5 41.9 32 -9.8 14.3
03:05 1010 29.83 839 24.78 5.7 42.3 32 -9.6 14.7
03:10 1010 29.83 839 24.78 5.8 42.4 33 -9.1 15.5
03:15 1009 29.8 839 24.78 6 42.8 33 -9.1 15.5
03:20 1009 29.8 839 24.78 6.1 42.9 33 -9 15.9
03:25 1009 29.8 839 24.78 5.9 42.7 32 -9.4 15
03:30 1009 29.8 838 24.75 5.9 42.6 33 -9 15.7
03:35 1009 29.8 838 24.75 5.9 42.6 32 -9.4 15.1
03:40 1009 29.8 838 24.75 6.3 43.3 33 -8.8 16.1
03:45 1009 29.8 838 24.75 6.5 43.7 32 -9.3 15.3
03:50 1009 29.8 838 24.75 6.6 43.8 30 -9.6 14.7
03:55 1009 29.8 838 24.75 6.8 44.3 31 -9.2 15.4
04:00 1009 29.8 838 24.75 6.7 44.1 31 -9.2 15.5
04:05 1009 29.8 838 24.75 6.7 44.1 31 -9.2 15.4
04:10 1009 29.8 838 24.75 6.7 44 32 -9.1 15.7
04:15 1009 29.8 838 24.75 6.6 43.8 32 -8.9 15.9
04:20 1009 29.8 838 24.75 6.5 43.6 33 -8.7 16.3
04:25 1009 29.8 838 24.75 6.3 43.4 33 -8.7 16.4
04:30 1009 29.8 838 24.75 6.4 43.5 33 -8.8 16.1
04:35 1009 29.8 838 24.75 6.6 43.8 32 -9.1 15.5
04:40 1009 29.8 838 24.75 6.7 44.1 32 -8.7 16.4
04:45 1009 29.8 838 24.75 6.6 43.9 32 -8.8 16.2
04:50 1008 29.77 838 24.75 6.7 44 32 -8.8 16.1
04:55 1008 29.77 838 24.75 6.6 44 32 -8.9 15.9
05:00 1008 29.77 838 24.75 6.8 44.2 32 -8.6 16.5
05:05 1008 29.77 838 24.75 6.7 44 33 -8.5 16.7
05:10 1008 29.77 838 24.75 6.7 44 33 -8.5 16.7
05:15 1008 29.77 837 24.72 6.7 44 33 -8.4 16.9
05:20 1008 29.77 837 24.72 6.6 43.9 34 -8.3 17.1
05:25 1008 29.77 837 24.72 6.7 44 33 -8.4 16.9
05:30 1008 29.77 837 24.72 6.9 44.4 33 -8.4 16.8
05:35 1008 29.77 837 24.72 6.9 44.5 34 -7.9 17.7
05:40 1008 29.77 837 24.72 6.9 44.4 32 -8.6 16.5
05:45 1008 29.77 838 24.75 7.1 44.8 33 -8.2 17.2
05:50 1009 29.8 838 24.75 7 44.6 34 -7.6 18.3
05:55 1009 29.8 838 24.75 6.9 44.5 38 -6.5 20.3
06:00 1009 29.8 838 24.75 6.4 43.6 47 -4.1 24.6
06:05 1008 29.77 838 24.75 5.7 42.2 50 -3.8 25.1
06:10 1009 29.8 838 24.75 5.5 41.9 51 -3.8 25.2
06:15 1009 29.8 838 24.75 5.4 41.7 53 -3.5 25.6
06:20 1009 29.8 838 24.75 5.3 41.5 51 -4.1 24.7
06:25 1009 29.8 838 24.75 5.4 41.8 50 -4.2 24.4
06:30 1009 29.8 838 24.75 5.5 41.9 50 -4.1 24.7
06:35 1008 29.77 838 24.75 5.5 41.8 50 -4.1 24.6
06:40 1008 29.77 838 24.75 5.4 41.7 51 -4 24.7
06:45 1008 29.77 838 24.75 5.5 41.8 50 -4.3 24.3
06:50 1008 29.77 838 24.75 5.5 42 48 -4.6 23.7
06:55 1008 29.77 838 24.75 5.6 42.1 48 -4.5 23.9
07:00 1008 29.77 838 24.75 5.7 42.2 47 -4.8 23.4
07:05 1008 29.77 838 24.75 5.7 42.3 47 -4.7 23.6
07:10 1008 29.77 838 24.75 5.5 41.9 48 -4.5 23.9
07:15 1008 29.77 838 24.75 5.5 41.9 47 -4.9 23.1
07:20 1008 29.77 838 24.75 5.7 42.2 48 -4.5 24
07:25 1008 29.77 838 24.75 5.6 42.2 47 -4.8 23.3
07:30 1008 29.77 838 24.75 5.7 42.2 46 -5 23.1
07:35 1008 29.77 838 24.75 5.7 42.3 48 -4.6 23.8
07:40 1008 29.77 838 24.75 5.3 41.6 48 -4.9 23.2
07:45 1008 29.77 837 24.72 5.4 41.8 44 -5.8 21.6
07:50 1008 29.77 837 24.72 5.5 41.8 48 -4.7 23.5
07:55 1008 29.77 837 24.72 5.4 41.7 45 -5.6 21.9
08:00 1008 29.77 837 24.72 5.5 41.9 44 -5.8 21.6
08:05 1008 29.77 837 24.72 5.5 42 45 -5.4 22.3
08:10 1008 29.77 837 24.72 5.4 41.8 45 -5.6 21.9
08:15 1008 29.77 837 24.72 5.5 41.8 45 -5.6 21.9
08:20 1008 29.77 837 24.72 5.4 41.7 45 -5.6 21.9
08:25 1008 29.77 838 24.75 5.3 41.6 45 -5.5 22.1
08:30 1008 29.77 838 24.75 5.3 41.5 46 -5.4 22.2
08:35 1008 29.77 838 24.75 5.3 41.5 45 -5.6 21.9
08:40 1008 29.77 838 24.75 5.2 41.4 45 -5.6 21.9
08:45 1008 29.77 838 24.75 5.2 41.4 46 -5.5 22
08:50 1008 29.77 838 24.75 5.2 41.4 46 -5.5 22
08:55 1008 29.77 838 24.75 5.2 41.3 46 -5.4 22.3
09:00 1008 29.77 838 24.75 5.3 41.5 46 -5.5 22.1
09:05 1008 29.77 838 24.75 5.4 41.8 47 -5.1 22.9
09:10 1008 29.77 838 24.75 5.4 41.8 47 -5.1 22.9
09:15 1008 29.77 838 24.75 5.5 41.9 47 -4.9 23.2
09:20 1008 29.77 838 24.75 5.5 41.8 48 -4.6 23.7
09:25 1008 29.77 838 24.75 5.3 41.6 49 -4.4 24.1
09:30 1008 29.77 838 24.75 5.2 41.4 50 -4.4 24.1
09:35 1008 29.77 838 24.75 5.3 41.5 49 -4.6 23.8
09:40 1008 29.77 838 24.75 5.3 41.6 50 -4.4 24.2
09:45 1009 29.8 838 24.75 5.3 41.5 50 -4.2 24.5
09:50 1009 29.8 838 24.75 5.2 41.3 52 -4 24.8
09:55 1009 29.8 838 24.75 5.2 41.3 52 -3.9 25
10:00 1009 29.8 838 24.75 5.2 41.3 53 -3.7 25.4
10:05 1009 29.8 838 24.75 5.2 41.3 53 -3.7 25.4
10:10 1009 29.8 838 24.75 5.2 41.3 52 -3.9 25
10:15 1009 29.8 838 24.75 5.2 41.4 52 -3.9 24.9
10:20 1009 29.8 838 24.75 5.5 41.8 50 -4.2 24.5
10:25 1009 29.8 838 24.75 5.7 42.3 49 -4.3 24.3
10:30 1009 29.8 838 24.75 5.8 42.4 49 -4.1 24.7
10:35 1009 29.8 838 24.75 5.9 42.5 50 -3.9 25
10:40 1009 29.8 838 24.75 5.8 42.5 50 -3.7 25.3
10:45 1009 29.8 838 24.75 5.8 42.5 50 -3.8 25.2
10:50 1009 29.8 838 24.75 5.8 42.5 51 -3.6 25.5
10:55 1009 29.8 838 24.75 5.8 42.5 51 -3.4 25.8
11:00 1009 29.8 838 24.75 5.8 42.4 52 -3.3 26
11:05 1009 29.8 838 24.75 5.9 42.6 52 -3.2 26.2
11:10 1009 29.8 838 24.75 5.9 42.7 53 -3 26.7
11:15 1009 29.8 838 24.75 5.8 42.5 54 -2.7 27.1
11:20 1009 29.8 838 24.75 5.8 42.5 56 -2.3 27.8
11:25 1008 29.77 838 24.75 5.8 42.5 56 -2.2 28.1
11:30 1008 29.77 838 24.75 5.9 42.6 57 -2 28.5
11:35 1008 29.77 838 24.75 6 42.8 57 -1.9 28.6
11:40 1008 29.77 838 24.75 5.9 42.7 56 -2.1 28.3
11:45 1008 29.77 838 24.75 6 42.8 56 -2 28.4
11:50 1008 29.77 837 24.72 6.1 43 56 -2.1 28.2
11:55 1008 29.77 837 24.72 6.2 43.2 55 -2.2 28
12:00 1008 29.77 837 24.72 6.2 43.1 54 -2.4 27.7
12:05 1008 29.77 837 24.72 6.4 43.4 52 -2.7 27.2
12:10 1008 29.77 837 24.72 6.5 43.6 51 -2.9 26.9
12:15 1008 29.77 837 24.72 6.6 43.8 51 -2.9 26.8
12:20 1008 29.77 837 24.72 6.7 44 50 -2.9 26.8
12:25 1008 29.77 837 24.72 6.6 43.9 49 -3.4 25.8
12:30 1008 29.77 837 24.72 6.5 43.7 49 -3.4 25.9
12:35 1008 29.77 837 24.72 6.6 43.8 49 -3.4 25.9
12:40 1008 29.77 837 24.72 6.6 43.8 49 -3.3 26.1
12:45 1008 29.77 837 24.72 6.5 43.7 49 -3.5 25.7
12:50 1008 29.77 837 24.72 6.5 43.7 49 -3.6 25.6
12:55 1008 29.77 837 24.72 6.4 43.5 49 -3.6 25.5
13:00 1008 29.77 837 24.72 6.3 43.4 50 -3.3 26
13:05 1008 29.77 837 24.72 6.3 43.3 50 -3.4 25.9
13:10 1008 29.77 837 24.72 6.2 43.2 51 -3.1 26.4
13:15 1008 29.77 837 24.72 6.2 43.1 52 -3 26.5
13:20 1008 29.77 837 24.72 6.3 43.3 52 -2.9 26.8
13:25 1008 29.77 837 24.72 6.4 43.5 52 -2.8 26.9
13:30 1008 29.77 837 24.72 6.4 43.5 50 -3.2 26.3
13:35 1008 29.77 837 24.72 6.4 43.5 51 -2.9 26.7
13:40 1008 29.77 837 24.72 6.4 43.5 51 -3 26.6
13:45 1008 29.77 837 24.72 6.4 43.6 50 -3.3 26.1
13:50 1008 29.77 837 24.72 6.4 43.6 51 -3 26.7
13:55 1008 29.77 837 24.72 6.5 43.6 52 -2.7 27.1
14:00 1008 29.77 837 24.72 6.5 43.7 52 -2.7 27.2
14:05 1008 29.77 837 24.72 6.4 43.6 50 -3.2 26.2
14:10 1008 29.77 837 24.72 6.4 43.4 50 -3.2 26.2
14:15 1008 29.77 838 24.75 6.3 43.3 51 -3.2 26.3
14:20 1008 29.77 838 24.75 6.3 43.3 51 -3.1 26.5
14:25 1008 29.77 838 24.75 6.1 42.9 53 -2.9 26.8
14:30 1008 29.77 838 24.75 5.9 42.6 53 -2.9 26.8
14:35 1009 29.8 838 24.75 5.6 42.1 54 -2.9 26.8
14:40 1009 29.8 838 24.75 5.5 41.9 58 -2.1 28.2
14:45 1009 29.8 838 24.75 5.1 41.1 64 -1.3 29.7
14:50 1009 29.8 838 24.75 4.4 40 67 -1.1 29.9
14:55 1009 29.8 838 24.75 3.1 37.6 78 -0.3 31.4
15:00 1009 29.8 839 24.78 2 35.6 86 -0.1 31.9
15:05 1009 29.8 839 24.78 1.4 34.4 91 -0 32
15:10 1009 29.8 839 24.78 1 33.7 93 -0.1 31.8
15:15 1010 29.83 839 24.78 0.6 33.1 94 -0.2 31.6
15:20 1010 29.83 839 24.78 0.4 32.8 95 -0.3 31.5
15:25 1010 29.83 839 24.78 0.4 32.8 96 -0.1 31.7
15:30 1010 29.83 839 24.78 0.4 32.8 96 -0.1 31.8
15:35 1010 29.83 839 24.78 0.5 33 96 -0 32
15:40 1010 29.83 840 24.81 0.5 33 95 -0.2 31.7
15:45 1010 29.83 840 24.81 0.3 32.6 95 -0.3 31.5
15:50 1011 29.85 840 24.81 0.2 32.3 97 -0.3 31.5
15:55 1011 29.85 840 24.81 0.2 32.4 97 -0.2 31.7
16:00 1011 29.85 840 24.81 0.2 32.3 97 -0.2 31.6
16:05 1011 29.85 840 24.81 0.2 32.3 97 -0.2 31.6
16:10 1011 29.85 840 24.81 0.2 32.4 97 -0.1 31.7
16:15 1011 29.85 840 24.81 0.3 32.5 97 -0.1 31.8
16:20 1011 29.85 840 24.81 0.3 32.6 97 -0 31.9
16:25 1011 29.85 841 24.83 0.3 32.6 97 -0.1 31.8
16:30 1011 29.85 840 24.81 0.1 32.3 97 -0.3 31.4
16:35 1011 29.85 841 24.83 -0 31.9 97 -0.4 31.3
16:40 1011 29.85 841 24.83 -0 31.9 98 -0.4 31.3
16:45 1011 29.85 841 24.83 -0.1 31.9 98 -0.4 31.3
16:50 1012 29.88 841 24.83 -0.1 31.9 98 -0.4 31.3
16:55 1012 29.88 841 24.83 -0.1 31.8 98 -0.4 31.3
17:00 1012 29.88 841 24.83 -0.2 31.6 98 -0.4 31.2
17:05 1012 29.88 841 24.83 -0.3 31.5 99 -0.5 31.2
17:10 1012 29.88 841 24.83 -0.2 31.6 99 -0.4 31.3
17:15 1012 29.88 841 24.83 -0.1 31.7 99 -0.3 31.5
17:20 1012 29.88 841 24.83 -0.2 31.7 99 -0.3 31.4
17:25 1012 29.88 841 24.83 -0.1 31.8 99 -0.3 31.5
17:30 1012 29.88 841 24.83 -0.2 31.7 99 -0.4 31.4
17:35 1012 29.88 841 24.83 -0.2 31.7 99 -0.4 31.3
17:40 1012 29.88 841 24.83 -0.2 31.6 98 -0.4 31.2
17:45 1012 29.88 841 24.83 -0.2 31.7 98 -0.4 31.2
17:50 1012 29.88 841 24.83 -0.2 31.6 98 -0.5 31
17:55 1012 29.88 841 24.83 -0.2 31.7 97 -0.6 31
18:00 1012 29.88 842 24.86 -0.2 31.7 97 -0.6 30.9
18:05 1012 29.88 842 24.86 -0.1 31.8 97 -0.6 30.9
18:10 1012 29.88 842 24.86 -0.1 31.7 96 -0.7 30.8
18:15 1012 29.88 842 24.86 -0.1 31.9 96 -0.7 30.8
18:20 1013 29.91 842 24.86 -0.1 31.8 95 -0.8 30.6
18:25 1013 29.91 842 24.86 0 32 94 -0.8 30.5
18:30 1013 29.91 842 24.86 0 32.1 93 -1 30.3
18:35 1013 29.91 842 24.86 0 32 93 -1 30.3
18:40 1013 29.91 842 24.86 0 32 93 -1 30.3
18:45 1013 29.91 842 24.86 -0.1 31.9 93 -1.1 30
18:50 1013 29.91 842 24.86 0 32 92 -1.2 29.8
18:55 1013 29.91 842 24.86 -0 31.9 91 -1.4 29.5
19:00 1013 29.91 842 24.86 -0 31.9 88 -1.8 28.8
19:05 1013 29.91 842 24.86 0.2 32.4 86 -1.8 28.7
19:10 1013 29.91 842 24.86 0.3 32.5 85 -1.9 28.5
19:15 1013 29.91 842 24.86 0.3 32.6 86 -1.8 28.8
19:20 1013 29.91 842 24.86 0.3 32.6 84 -2 28.3
19:25 1013 29.91 842 24.86 0.3 32.6 83 -2.2 28.1
19:30 1013 29.91 842 24.86 0.3 32.6 83 -2.3 27.8
19:35 1013 29.91 842 24.86 0.2 32.4 82 -2.5 27.5
19:40 1013 29.91 842 24.86 0.3 32.5 81 -2.6 27.4
19:45 1013 29.91 842 24.86 0.3 32.5 81 -2.7 27.2
19:50 1013 29.91 842 24.86 0.2 32.3 81 -2.6 27.2
19:55 1013 29.91 842 24.86 0.1 32.2 80 -2.9 26.8
20:00 1013 29.91 842 24.86 0.2 32.4 78 -3.1 26.4
20:05 1013 29.91 842 24.86 0.3 32.6 76 -3.3 26
20:10 1013 29.91 842 24.86 0.3 32.5 79 -3 26.6
20:15 1013 29.91 842 24.86 0.1 32.2 78 -3.4 26
20:20 1013 29.91 842 24.86 0.1 32.2 77 -3.4 25.9
20:25 1013 29.91 842 24.86 0 32.1 78 -3.4 25.9
20:30 1013 29.91 843 24.89 -0.1 31.7 78 -3.5 25.7
20:35 1013 29.91 843 24.89 -0.1 31.7 77 -3.6 25.5
20:40 1014 29.94 843 24.89 -0 31.9 77 -3.6 25.5
20:45 1014 29.94 843 24.89 0.1 32.2 77 -3.4 25.8
20:50 1014 29.94 843 24.89 0.2 32.4 78 -3.2 26.2
20:55 1014 29.94 843 24.89 0.3 32.6 79 -2.9 26.8
21:00 1014 29.94 843 24.89 0.2 32.4 81 -2.7 27.1
21:05 1014 29.94 843 24.89 0.1 32.1 82 -2.6 27.3
21:10 1014 29.94 843 24.89 0 32 83 -2.5 27.5
21:15 1014 29.94 843 24.89 -0 31.9 82 -2.7 27.1
21:20 1014 29.94 843 24.89 -0.1 31.9 83 -2.7 27.2
21:25 1014 29.94 843 24.89 0 32 83 -2.6 27.3
21:30 1014 29.94 843 24.89 -0.1 31.8 83 -2.6 27.3
21:35 1014 29.94 843 24.89 -0.1 31.7 85 -2.4 27.6
21:40 1014 29.94 843 24.89 -0.3 31.5 84 -2.6 27.3
21:45 1014 29.94 843 24.89 -0.5 31.1 85 -2.7 27.1
21:50 1014 29.94 843 24.89 -0.7 30.8 85 -2.9 26.8
21:55 1014 29.94 843 24.89 -0.8 30.6 85 -3 26.6
22:00 1014 29.94 843 24.89 -0.8 30.6 85 -3 26.6
22:05 1014 29.94 843 24.89 -1.1 30.1 84 -3.5 25.8
22:10 1014 29.94 843 24.89 -1.6 29.1 84 -3.9 25
22:15 1014 29.94 843 24.89 -2 28.4 85 -4.2 24.4
22:20 1014 29.94 843 24.89 -2.1 28.2 83 -4.6 23.8
22:25 1014 29.94 843 24.89 -2.3 27.8 80 -5.3 22.4
22:30 1014 29.94 843 24.89 -2.8 27 82 -5.4 22.2
22:35 1014 29.94 844 24.92 -2.7 27.1 82 -5.5 22.2
22:40 1014 29.94 844 24.92 -2.5 27.4 79 -5.6 21.9
22:45 1014 29.94 844 24.92 -2.6 27.4 78 -5.9 21.5
22:50 1014 29.94 844 24.92 -2.7 27.1 78 -6 21.2
22:55 1015 29.97 844 24.92 -2.8 26.9 78 -6.2 20.9
23:00 1014 29.94 844 24.92 -3 26.6 78 -6.4 20.5
23:05 1015 29.97 844 24.92 -2.9 26.9 78 -6.2 20.8
23:10 1015 29.97 844 24.92 -2.8 26.9 77 -6.4 20.6
23:15 1015 29.97 844 24.92 -2.8 27 75 -6.5 20.2
23:20 1015 29.97 844 24.92 -2.7 27.2 75 -6.6 20.2
23:25 1015 29.97 844 24.92 -2.5 27.4 74 -6.6 20.1
23:30 1015 29.97 844 24.92 -2.5 27.6 73 -6.7 20
23:35 1015 29.97 844 24.92 -2.8 26.9 74 -6.8 19.8
23:40 1015 29.97 844 24.92 -3.3 26 76 -7 19.3
23:45 1015 29.97 844 24.92 -3.6 25.6 77 -7.1 19.3
23:50 1015 29.97 844 24.92 -3.5 25.8 76 -7 19.3
23:55 1015 29.97 844 24.92 -3.4 26 76 -7 19.5
24:00 1015 29.97 844 24.92 -3.3 26 76 -7 19.4